createdAt,value
2019-04-12T09:10:14.546Z,19.80
2019-04-12T14:34:47.905Z,18.10
2019-04-12T15:51:14.234Z,17.50
2019-04-12T16:10:26.062Z,17.20
2019-04-12T16:48:25.454Z,17.20
2019-04-12T16:51:30.162Z,17.00
2019-04-12T16:54:20.700Z,16.90
2019-04-12T16:57:51.923Z,16.90
2019-04-12T17:23:32.772Z,16.10
2019-04-12T17:34:14.213Z,15.90
2019-04-12T17:59:13.398Z,15.70
2019-04-12T18:02:38.934Z,15.70
2019-04-12T18:06:02.051Z,15.80
2019-04-12T18:09:48.316Z,15.90
2019-04-12T18:13:33.421Z,15.90
2019-04-12T18:23:48.666Z,15.80
2019-04-12T18:26:49.341Z,15.70
2019-04-12T18:30:17.288Z,15.70
2019-04-12T18:33:43.418Z,15.60
2019-04-12T18:37:07.089Z,15.60
2019-04-12T18:40:21.469Z,15.60
2019-04-12T18:43:45.962Z,15.60
2019-04-12T18:47:04.030Z,15.60
2019-04-12T18:50:02.616Z,15.50
2019-04-12T18:53:09.681Z,15.60
2019-04-12T18:56:02.162Z,15.60
2019-04-12T19:02:48.296Z,15.60
2019-04-12T19:09:14.205Z,15.10
2019-04-12T19:12:09.699Z,14.60
2019-04-12T19:15:02.491Z,14.90
2019-04-12T19:17:56.309Z,15.00
2019-04-12T19:20:54.580Z,15.10
2019-04-12T19:23:44.799Z,15.20
2019-04-12T19:26:48.995Z,15.10
2019-04-12T19:29:41.343Z,15.10
2019-04-12T19:32:52.272Z,15.20
2019-04-12T19:36:14.671Z,15.10
2019-04-12T19:39:40.191Z,15.20
2019-04-12T19:42:35.040Z,15.20
2019-04-12T19:48:50.210Z,15.20
2019-04-12T19:51:39.748Z,15.20
2019-04-12T19:54:40.077Z,15.20
2019-04-12T19:57:31.800Z,15.10
2019-04-12T20:00:24.240Z,15.20
2019-04-12T20:03:17.895Z,15.10
2019-04-12T20:06:28.567Z,15.10
2019-04-12T20:09:20.158Z,15.10
2019-04-12T20:12:18.233Z,15.10
2019-04-12T20:15:25.783Z,15.10
2019-04-12T20:18:18.735Z,15.00
2019-04-12T20:21:38.248Z,15.00
2019-04-12T20:24:37.191Z,15.00
2019-04-12T20:27:57.821Z,15.00
2019-04-12T20:31:28.888Z,15.00
2019-04-12T20:34:43.859Z,15.00
2019-04-12T20:37:43.201Z,15.00
2019-04-12T20:41:12.403Z,15.00
2019-04-12T20:53:41.523Z,14.80
2019-04-12T20:57:33.260Z,14.90
2019-04-12T21:01:20.673Z,14.90
2019-04-12T21:09:04.980Z,14.70
2019-04-12T21:12:28.156Z,14.60
2019-04-12T21:15:20.080Z,14.70
2019-04-12T21:18:24.693Z,14.60
2019-04-12T21:25:20.950Z,14.60
2019-04-12T21:28:10.462Z,14.60
2019-04-12T21:31:33.280Z,14.60
2019-04-12T21:34:29.708Z,14.50
2019-04-12T21:42:08.847Z,14.50
2019-04-12T21:45:13.777Z,14.50
2019-04-12T21:48:44.543Z,14.50
2019-04-12T21:55:33.072Z,14.40
2019-04-12T22:22:51.751Z,14.20
2019-04-12T22:29:03.195Z,14.00
2019-04-12T22:46:36.935Z,13.80
